Station: Lady Elliot Island  

  Atmospheric Gas Attenuation - ITU Rec 676-11   ----------------- dB/100km -----------------
Date Time Temp RH % AH g/m3 Dew Point Wind Direction Speed kph Gust kph Barometer mB Rainfall Since 9am 24GHz 47GHz 76GHz 122GHz 134GHz 241GHz
09/05 06:40 20.3 67 11.78 14 17 20 1019.9 0 26.0 29.3 49.4 130.0 131.9 456.3
09/05 06:30 20.3 67 11.78 14 17 28 1019.8 0 26.0 29.3 49.4 130.0 131.9 456.3
09/05 06:20 20.1 65 11.3 13.3 22 26 1019.7 0 25.0 28.6 47.5 125.1 125.7 434.9
09/05 06:10 20.2 64 11.19 13.2 13 19 1019.6 0 24.7 28.4 47.0 123.7 124.1 429.2
09/05 05:50 20.1 63 10.95 12.8 20 26 1019.2 0 24.2 28.0 46.1 121.3 121.0 418.5
09/05 05:40 20.1 64 11.12 13.1 20 26 1019.2 0 24.6 28.3 46.8 123.1 123.3 426.3
09/05 05:30 20.1 62 10.78 12.6 20 32 1019 0 23.9 27.7 45.4 119.4 118.8 410.6
09/05 05:20 19.9 62 10.65 12.4 20 24 1018.9 0 23.6 27.6 45.0 118.3 117.4 405.7
09/05 05:10 20.2 61 10.66 12.4 19 26 1018.8 0 23.6 27.5 44.9 118.0 117.1 404.5
09/05 05:00 20.1 58 10.08 11.6 20 28 1018.7 0 22.4 26.6 42.6 112.0 109.7 378.8
09/05 04:50 20.2 58 10.14 11.7 20 28 1018.8 0 22.5 26.7 42.8 112.5 110.3 381.0
09/05 04:40 20 59 10.2 11.7 20 26 1018.7 0 22.7 26.8 43.2 113.4 111.4 384.7
09/05 04:30 19.9 59 10.14 11.7 20 30 1018.6 0 22.5 26.8 43.0 112.9 110.7 382.4
09/05 04:20 20 59 10.2 11.7 22 28 1018.6 0 22.7 26.8 43.2 113.4 111.4 384.6
09/05 04:10 20.2 60 10.49 12.2 22 28 1018.6 0 23.3 27.2 44.2 116.2 114.8 396.7
09/05 04:00 19.9 65 11.17 13.1 20 28 1018.6 0 24.7 28.4 47.1 123.9 124.2 429.5
09/05 03:50 20.4 72 12.74 15.2 22 26 1018.5 0 28.0 30.9 53.3 140.4 144.7 501.1
09/05 03:40 20.3 72 12.66 15.1 19 20 1018.7 0 27.9 30.8 53.0 139.7 143.8 498.0
09/05 03:30 20.3 69 12.13 14.4 13 26 1018.5 0 26.7 29.9 50.8 133.7 136.5 472.4
09/05 03:20 20.4 64 11.32 13.4 19 20 1018.5 0 25.0 28.5 47.4 124.7 125.4 433.7
09/05 03:10 20.3 64 11.25 13.3 15 19 1018.6 0 24.9 28.4 47.2 124.1 124.6 431.1
09/05 03:00 20.3 64 11.25 13.3 13 15 1018.7 0 24.9 28.4 47.2 124.1 124.7 431.1
09/05 02:50 20.3 65 11.43 13.5 15 17 1018.6 0 25.2 28.7 47.9 126.1 127.0 439.4
09/05 02:40 20.3 65 11.43 13.5 13 17 1018.7 0 25.2 28.7 47.9 126.1 127.0 439.5
09/05 02:30 20 67 11.58 13.7 13 20 1018.7 0 25.6 29.1 48.7 128.2 129.6 448.2
09/05 02:20 20.2 65 11.36 13.4 13 19 1018.7 0 25.1 28.6 47.7 125.5 126.3 436.8
09/05 02:10 20 65 11.23 13.2 17 20 1018.8 0 24.8 28.5 47.3 124.4 124.9 431.9
09/05 02:00 20 65 11.23 13.2 17 24 1018.8 0 24.8 28.5 47.3 124.4 124.9 431.9
09/05 01:50 19.8 64 10.93 12.8 15 17 1018.8 0 24.2 28.1 46.2 121.5 121.2 419.0
09/05 01:40 19.8 66 11.27 13.3 15 17 1018.9 0 24.9 28.6 47.6 125.2 125.7 434.9
09/05 01:30 19.8 65 11.1 13 15 24 1018.9 0 24.6 28.3 46.9 123.3 123.5 426.9
09/05 01:20 19.4 65 10.84 12.7 9 13 1018.8 0 24.0 28.0 46.0 121.1 120.6 417.0
09/05 01:10 19.9 66 11.34 13.4 13 17 1018.9 0 25.1 28.7 47.8 125.8 126.5 437.6
09/05 01:00 19.6 67 11.31 13.3 15 20 1019 0 25.0 28.8 47.8 125.9 126.6 437.9
09/05 00:50 19.5 69 11.58 13.7 13 15 1018.9 0 25.6 29.2 49.0 129.0 130.4 451.2
09/05 00:40 19.8 68 11.61 13.7 15 17 1018.9 0 25.7 29.2 48.9 128.9 130.3 450.8
09/05 00:30 19.7 64 10.87 12.7 13 19 1018.9 0 24.1 28.0 46.0 121.0 120.6 416.8
09/05 00:20 19.1 68 11.15 13.1 11 13 1019.1 0 24.7 28.7 47.5 125.0 125.3 433.2
09/05 00:10 19.4 67 11.18 13.1 9 11 1019.2 0 24.8 28.6 47.4 124.8 125.2 433.0
09/05 00:00 19.4 67 11.18 13.1 11 15 1019.3 0 24.8 28.6 47.4 124.9 125.2 433.0
08/05 23:50 19.7 67 11.38 13.4 9 13 1019.4 0 25.2 28.9 48.1 126.6 127.4 440.7
08/05 23:40 20 63 10.89 12.7 11 11 1019.4 0 24.1 28.0 45.9 120.8 120.4 416.3
08/05 23:30 20 63 10.89 12.7 13 19 1019.4 0 24.1 28.0 45.9 120.8 120.4 416.3
08/05 23:20 20 62 10.71 12.5 15 19 1019.5 0 23.7 27.7 45.2 118.9 118.1 408.1
08/05 23:10 20 62 10.71 12.5 13 15 1019.6 0 23.7 27.7 45.2 118.9 118.1 408.1
08/05 23:00 20 62 10.71 12.5 11 17 1019.7 0 23.7 27.7 45.2 118.9 118.1 408.1
08/05 22:50 19.8 64 10.93 12.8 11 11 1019.7 0 24.2 28.1 46.2 121.6 121.3 419.3
08/05 22:40 20 63 10.89 12.7 11 13 1019.8 0 24.1 28.0 45.9 120.8 120.5 416.4
08/05 22:30 19.7 65 11.04 12.9 13 17 1019.9 0 24.5 28.3 46.7 122.9 122.9 425.0
08/05 22:20 20 62 10.71 12.5 13 19 1020 0 23.7 27.7 45.2 118.9 118.1 408.2
08/05 22:10 20.1 62 10.78 12.6 15 19 1020.1 0 23.9 27.8 45.5 119.6 118.9 411.0
08/05 22:00 20.5 60 10.68 12.5 13 20 1020.1 0 23.6 27.5 44.8 117.9 117.0 404.3
08/05 21:50 20.5 60 10.68 12.5 15 17 1020.1 0 23.6 27.5 44.8 117.9 117.0 404.3
08/05 21:40 20.4 63 11.14 13.1 15 17 1020.1 0 24.6 28.3 46.7 122.9 123.2 425.9
08/05 21:30 20.6 60 10.74 12.6 17 24 1020.1 0 23.8 27.6 45.0 118.4 117.6 406.5
08/05 21:20 20.4 62 10.97 12.9 11 15 1020 0 24.3 28.0 46.0 121.1 120.9 418.1
08/05 21:10 20.7 60 10.8 12.7 17 24 1020 0 23.9 27.6 45.2 118.8 118.2 408.7
08/05 21:00 20.4 65 11.5 13.6 15 22 1019.9 0 25.4 28.8 48.2 126.8 127.9 442.6
08/05 20:50 20.5 63 11.21 13.2 11 13 1019.9 0 24.8 28.3 46.9 123.5 123.9 428.6
08/05 20:40 20.5 66 11.74 13.9 15 17 1019.9 0 25.9 29.2 49.1 129.3 131.0 453.3
08/05 20:30 20.5 66 11.74 13.9 17 24 1019.8 0 25.9 29.2 49.1 129.2 131.0 453.2
08/05 20:20 20.5 63 11.21 13.2 17 22 1019.7 0 24.8 28.3 46.9 123.5 123.9 428.5
08/05 20:10 20.5 64 11.39 13.5 20 26 1019.6 0 25.1 28.6 47.7 125.4 126.3 436.8
08/05 20:00 20.3 62 10.9 12.8 15 22 1019.5 0 24.1 27.9 45.8 120.5 120.1 415.2
08/05 19:50 20.3 62 10.9 12.8 15 17 1019.5 0 24.1 27.9 45.8 120.5 120.1 415.2
08/05 19:40 20.2 70 12.24 14.6 17 22 1019.5 0 27.0 30.1 51.3 135.2 138.3 478.6
08/05 19:30 20.4 69 12.21 14.5 17 26 1019.4 0 26.9 30.0 51.1 134.5 137.5 475.9
08/05 19:20 20.4 71 12.56 15 19 22 1019.3 0 27.6 30.6 52.5 138.4 142.3 492.7
08/05 19:10 20.3 71 12.49 14.9 17 26 1019.3 0 27.5 30.5 52.3 137.8 141.5 490.0
08/05 19:00 20.6 71 12.71 15.2 22 32 1019 0 27.9 30.8 53.0 139.7 144.0 498.6
08/05 18:50 20.4 71 12.56 15 19 20 1018.8 0 27.6 30.6 52.5 138.4 142.2 492.5
08/05 18:40 20.4 71 12.56 15 26 32 1018.7 0 27.6 30.6 52.5 138.4 142.2 492.5
08/05 18:30 20.5 73 12.99 15.5 20 28 1018.5 0 28.5 31.3 54.3 143.0 148.0 512.6
08/05 18:20 20.4 73 12.91 15.4 22 28 1018.3 0 28.4 31.1 54.0 142.3 147.0 509.3
08/05 18:10 20.4 72 12.74 15.2 20 26 1018.1 0 28.0 30.8 53.2 140.3 144.6 501.0
08/05 18:00 20.4 72 12.74 15.2 22 32 1018.1 0 28.0 30.8 53.2 140.3 144.6 501.0
08/05 17:50 20.4 71 12.56 15 22 26 1018.2 0 27.6 30.5 52.5 138.3 142.2 492.3
08/05 17:40 20.4 72 12.74 15.2 20 26 1018.1 0 28.0 30.8 53.2 140.3 144.6 501.0
08/05 17:30 20.4 72 12.74 15.2 20 32 1017.9 0 28.0 30.8 53.2 140.3 144.6 500.9
08/05 17:20 20.4 72 12.74 15.2 19 24 1017.9 0 28.0 30.8 53.2 140.3 144.6 500.9
08/05 17:10 20.3 71 12.49 14.9 22 30 1017.9 0 27.5 30.4 52.2 137.7 141.4 489.4
08/05 17:00 20.5 72 12.81 15.3 20 30 1017.8 0 28.2 30.9 53.5 140.9 145.4 503.6
08/05 16:50 20.6 72 12.89 15.4 22 26 1017.7 0 28.3 31.0 53.7 141.6 146.3 506.8
08/05 16:40 20.6 72 12.89 15.4 24 28 1017.6 0 28.3 31.0 53.7 141.6 146.3 506.7
08/05 16:30 20.6 72 12.89 15.4 24 32 1017.4 0 28.3 31.0 53.7 141.6 146.3 506.7
08/05 16:20 20.7 72 12.96 15.5 20 22 1017.3 0 28.5 31.1 53.9 142.2 147.0 509.4
08/05 16:10 20.7 70 12.6 15 28 32 1017.3 0 27.7 30.5 52.4 138.1 142.1 492.0
08/05 16:00 20.7 70 12.6 15 22 30 1017.2 0 27.7 30.5 52.4 138.1 142.1 492.0
08/05 15:50 20.9 71 12.93 15.4 26 28 1017.3 0 28.4 31.0 53.7 141.5 146.2 506.6
08/05 15:40 21 71 13.01 15.5 24 28 1017.3 0 28.6 31.1 53.9 142.2 147.2 509.8
08/05 15:30 21 71 13.01 15.5 22 35 1017.3 0 28.6 31.1 53.9 142.2 147.2 509.8
08/05 15:20 21 69 12.64 15.1 20 24 1017.4 0 27.8 30.4 52.4 138.0 142.1 492.0
08/05 15:10 21.1 70 12.9 15.4 20 24 1017.4 0 28.3 30.8 53.4 140.8 145.5 503.9
08/05 15:00 21.1 71 13.08 15.6 22 32 1017.3 0 28.7 31.1 54.2 142.8 147.9 512.6
08/05 14:50 20.9 69 12.57 15 20 26 1017.3 0 27.6 30.4 52.1 137.4 141.3 489.3
08/05 14:40 21.1 68 12.53 15 20 26 1017.2 0 27.5 30.2 51.8 136.6 140.4 486.1
08/05 14:30 20.9 67 12.2 14.5 22 32 1017.2 0 26.8 29.7 50.6 133.3 136.2 471.6
08/05 14:20 20.7 66 11.88 14.1 24 30 1017.4 0 26.2 29.3 49.4 130.2 132.3 457.8
08/05 14:10 20.8 68 12.31 14.7 22 28 1017.4 0 27.1 30.0 51.1 134.7 137.9 477.5
08/05 14:00 20.8 67 12.13 14.5 24 33 1017.6 0 26.7 29.7 50.4 132.8 135.5 469.1

Last Refresh: 09-May-2026 06:27:16

Bureau of Meteorology